Time;durP1;ratioP1;P1;durP2;ratioP2;P2;SDS_P1;SDS_P2;PMS_P1;PMS_P2;Temp;Humidity;BMP_temperature;BMP_pressure;BME280_temperature;BME280_humidity;BME280_pressure;Samples;Min_cycle;Max_cycle;Signal;HPM_P1;HPM_P2
2022/03/05 00:02:48;;;;;;;49.98;23.57;;;;;;;0.22;87.49;99411.28;4178949;83;21049;-89
2022/03/05 00:08:55;;;;;;;43.85;21.35;;;;;;;0.09;87.72;99393.77;4200842;83;21092;-89
2022/03/05 00:14:56;;;;;;;53.58;24.57;;;;;;;0.27;87.86;99413.11;4194988;83;21027;-89
2022/03/05 00:20:59;;;;;;;48.23;23.67;;;;;;;0.27;87.86;99413.11;4193848;83;21093;-89
2022/03/05 00:27:00;;;;;;;50.00;21.50;;;;;;;0.27;87.72;99416.58;4193159;83;21312;-90
2022/03/05 00:33:03;;;;;;;46.05;21.25;;;;;;;0.17;87.92;99415.98;4197465;83;21093;-90
2022/03/05 00:39:11;;;;;;;43.92;21.77;;;;;;;0.17;87.92;99415.98;4196306;83;21658;-88
2022/03/05 00:45:14;;;;;;;45.35;20.65;;;;;;;0.13;87.40;99419.80;4195929;83;21047;-91
2022/03/05 00:51:16;;;;;;;40.30;20.55;;;;;;;0.13;88.02;99406.87;4183625;83;21082;-90
2022/03/05 00:57:17;;;;;;;44.38;22.30;;;;;;;0.12;87.51;99411.48;4197588;83;21045;-89
2022/03/05 01:03:26;;;;;;;46.80;23.52;;;;;;;0.10;88.25;99408.28;4177960;83;21647;-89
2022/03/05 01:09:34;;;;;;;53.35;24.47;;;;;;;0.17;88.44;99402.52;4184352;83;21084;-89
2022/03/05 01:15:37;;;;;;;61.10;26.30;;;;;;;0.18;88.50;99400.87;4235850;82;21611;-90
2022/03/05 01:21:39;;;;;;;57.53;25.75;;;;;;;0.19;88.52;99405.14;4158277;84;21034;-89
2022/03/05 01:27:40;;;;;;;51.65;23.90;;;;;;;0.18;88.44;99403.56;4199991;83;21666;-91
2022/03/05 01:33:44;;;;;;;48.65;22.98;;;;;;;0.18;88.44;99403.56;4196782;83;21117;-88
2022/03/05 01:39:57;;;;;;;54.60;25.80;;;;;;;0.10;88.26;99393.48;4199352;83;21633;-90
2022/03/05 01:45:59;;;;;;;48.20;23.73;;;;;;;0.08;88.52;99400.27;4217900;82;21556;-89
2022/03/05 01:52:01;;;;;;;65.08;27.32;;;;;;;0.05;88.39;99394.91;4307443;80;21107;-88
2022/03/05 01:58:03;;;;;;;69.10;27.65;;;;;;;-0.08;88.73;99380.33;4312801;80;21043;-90
2022/03/05 02:04:06;;;;;;;69.03;29.02;;;;;;;-0.03;89.05;99376.20;4308626;80;20999;-90
2022/03/05 02:10:10;;;;;;;52.17;23.98;;;;;;;0.12;89.06;99395.33;4312408;80;21019;-88
2022/03/05 02:16:11;;;;;;;63.95;26.45;;;;;;;0.14;89.06;99393.15;4320886;80;21075;-90
2022/03/05 02:22:15;;;;;;;58.13;27.30;;;;;;;0.09;88.75;99369.55;4323037;80;21039;-90
2022/03/05 02:28:22;;;;;;;54.33;25.30;;;;;;;0.09;88.75;99369.55;4309379;80;21558;-95
2022/03/05 02:34:26;;;;;;;52.50;26.00;;;;;;;0.24;88.95;99388.91;4319926;80;21035;-89
2022/03/05 02:40:30;;;;;;;65.80;28.52;;;;;;;0.25;89.16;99403.18;4314319;80;21051;-89
2022/03/05 02:46:37;;;;;;;67.58;30.17;;;;;;;0.19;88.97;99411.10;4320288;80;21494;-90
2022/03/05 02:52:40;;;;;;;77.17;32.80;;;;;;;0.19;88.97;99411.10;4304674;80;21559;-88
2022/03/05 02:58:42;;;;;;;76.17;33.15;;;;;;;0.15;88.90;99414.92;4301484;80;21054;-89
2022/03/05 03:04:44;;;;;;;65.35;31.20;;;;;;;0.03;89.10;99389.05;4290814;80;21019;-90
2022/03/05 03:10:47;;;;;;;64.70;29.40;;;;;;;0.13;88.81;99414.41;4289118;80;22284;-89
2022/03/05 03:16:54;;;;;;;65.83;30.05;;;;;;;0.10;89.28;99414.20;4286516;80;21086;-90
2022/03/05 03:22:56;;;;;;;64.30;29.50;;;;;;;0.08;88.95;99415.06;4293205;80;21098;-88
2022/03/05 03:28:57;;;;;;;65.97;30.72;;;;;;;0.07;89.50;99408.88;4302899;80;21079;-88
2022/03/05 03:35:00;;;;;;;61.68;28.85;;;;;;;0.09;89.53;99420.69;4288892;80;21043;-88
2022/03/05 03:41:11;;;;;;;67.95;29.70;;;;;;;0.11;89.55;99415.81;4294691;80;21007;-91
2022/03/05 03:47:12;;;;;;;63.10;29.00;;;;;;;0.07;89.45;99425.56;4296054;80;21494;-87
2022/03/05 03:53:18;;;;;;;60.43;28.45;;;;;;;0.04;89.74;99424.28;4316511;80;21577;-89
2022/03/05 03:59:35;;;;;;;62.83;28.90;;;;;;;0.07;89.97;99424.22;4317448;80;21034;-88
2022/03/05 04:05:38;;;;;;;55.28;27.58;;;;;;;0.04;89.54;99417.55;4307782;80;38598;-91
2022/03/05 04:11:39;;;;;;;60.78;27.37;;;;;;;0.07;90.12;99420.98;4328588;80;21072;-90
2022/03/05 04:17:46;;;;;;;64.95;30.57;;;;;;;0.10;89.98;99420.94;4340163;80;22011;-88
2022/03/05 04:23:48;;;;;;;61.33;27.35;;;;;;;0.14;89.96;99420.07;4335839;80;21051;-87
2022/03/05 04:29:49;;;;;;;65.85;29.55;;;;;;;0.14;89.83;99430.03;4313699;80;21050;-89
2022/03/05 04:35:50;;;;;;;59.83;28.80;;;;;;;-0.02;89.79;99414.70;4331654;80;21064;-94
2022/03/05 04:41:54;;;;;;;57.60;26.07;;;;;;;-0.02;89.79;99414.70;4182002;83;21050;-90
2022/03/05 04:47:56;;;;;;;57.65;28.02;;;;;;;0.00;90.10;99441.55;4228366;82;21108;-89
2022/03/05 04:53:59;;;;;;;61.02;28.85;;;;;;;0.00;90.10;99441.55;4195422;83;21109;-91
2022/03/05 05:00:07;;;;;;;70.72;29.02;;;;;;;0.00;89.93;99448.28;4190035;83;21566;-88
2022/03/05 05:06:12;;;;;;;58.75;27.65;;;;;;;-0.02;90.04;99446.42;4194617;83;21736;-88
2022/03/05 05:12:27;;;;;;;53.92;26.62;;;;;;;0.00;90.14;99448.85;4188919;83;21019;-88
2022/03/05 05:18:29;;;;;;;64.40;30.57;;;;;;;-0.01;90.02;99452.62;4171863;83;21015;-89
2022/03/05 05:24:36;;;;;;;59.67;27.90;;;;;;;-0.02;90.02;99452.37;4195890;83;21038;-90
2022/03/05 05:30:37;;;;;;;53.73;24.98;;;;;;;-0.07;89.85;99464.03;4189036;83;21031;-88
2022/03/05 05:36:39;;;;;;;46.80;23.05;;;;;;;-0.15;89.31;99467.92;4193584;83;21552;-88
2022/03/05 05:42:42;;;;;;;51.73;23.95;;;;;;;-0.24;89.09;99469.69;4195515;83;21563;-88
2022/03/05 05:48:49;;;;;;;51.40;22.45;;;;;;;-0.31;89.39;99481.34;4195189;83;21102;-90
2022/03/05 05:54:59;;;;;;;50.58;22.70;;;;;;;-0.31;89.39;99481.34;4190215;83;21127;-88
2022/03/05 06:01:07;;;;;;;51.08;22.48;;;;;;;-0.32;89.24;99479.22;4196551;83;21055;-89
2022/03/05 06:07:08;;;;;;;44.08;20.12;;;;;;;-0.33;89.45;99487.02;4194198;83;21531;-89
2022/03/05 06:13:10;;;;;;;49.65;23.22;;;;;;;-0.30;89.36;99495.07;4190733;83;21024;-94
2022/03/05 06:19:15;;;;;;;45.38;22.40;;;;;;;-0.32;89.10;99495.36;4190922;83;21085;-90
2022/03/05 06:25:19;;;;;;;42.70;20.35;;;;;;;-0.25;89.50;99488.27;4194749;83;21098;-89
2022/03/05 06:31:20;;;;;;;46.65;21.10;;;;;;;-0.03;89.46;99511.31;4190845;83;21184;-90
2022/03/05 06:37:23;;;;;;;43.42;20.50;;;;;;;-0.03;89.46;99511.31;4316286;80;21047;-88
2022/03/05 06:43:25;;;;;;;44.95;20.72;;;;;;;-0.12;89.44;99491.02;4320277;80;21049;-89
2022/03/05 06:49:35;;;;;;;42.00;19.87;;;;;;;0.10;89.44;99516.50;4318708;80;21103;-89
2022/03/05 06:55:36;;;;;;;46.95;23.02;;;;;;;0.25;89.45;99530.51;4337017;80;21087;-90
2022/03/05 07:01:38;;;;;;;41.25;19.90;;;;;;;0.36;89.06;99529.25;4331854;80;22025;-89
2022/03/05 07:07:42;;;;;;;35.43;18.07;;;;;;;0.46;88.84;99531.78;4335249;80;21555;-90
2022/03/05 07:13:45;;;;;;;36.55;19.77;;;;;;;0.53;88.96;99532.75;4333395;80;20992;-89
2022/03/05 07:19:46;;;;;;;36.15;18.35;;;;;;;0.55;88.43;99544.03;4334953;80;21054;-91
2022/03/05 07:25:48;;;;;;;38.28;17.12;;;;;;;0.51;88.32;99547.86;4334182;80;21023;-90
2022/03/05 07:31:52;;;;;;;34.15;16.95;;;;;;;0.58;88.20;99547.48;4334634;80;21556;-91
2022/03/05 07:37:53;;;;;;;31.45;16.30;;;;;;;0.63;88.06;99544.67;4342853;80;21032;-89
2022/03/05 07:43:57;;;;;;;43.68;20.48;;;;;;;0.70;87.83;99548.61;4340844;80;21600;-90
2022/03/05 07:49:59;;;;;;;29.52;15.70;;;;;;;0.74;87.62;99552.83;4336646;80;21033;-89
2022/03/05 07:56:07;;;;;;;33.75;16.87;;;;;;;0.81;87.50;99562.69;4314974;80;21560;-88
2022/03/05 08:02:11;;;;;;;40.00;19.40;;;;;;;0.91;87.43;99565.20;4313172;80;21108;-90
2022/03/05 08:08:12;;;;;;;29.42;15.58;;;;;;;0.99;87.04;99572.04;4315304;80;21072;-88
2022/03/05 08:14:14;;;;;;;21.65;12.15;;;;;;;1.04;86.95;99570.60;4316275;80;21053;-89
2022/03/05 08:20:16;;;;;;;21.12;11.65;;;;;;;0.97;86.33;99581.53;4323025;80;21061;-89
2022/03/05 08:26:18;;;;;;;28.67;13.10;;;;;;;0.55;85.88;99573.67;4320107;80;21543;-89
2022/03/05 08:32:19;;;;;;;23.87;10.85;;;;;;;0.55;85.88;99573.67;4241700;82;21076;-92
2022/03/05 08:38:21;;;;;;;20.20;8.65;;;;;;;0.61;85.30;99581.34;4314738;80;21087;-89
2022/03/05 08:44:23;;;;;;;16.65;8.00;;;;;;;0.96;85.49;99579.91;4322419;80;21474;-89
2022/03/05 08:50:25;;;;;;;17.15;9.35;;;;;;;1.76;83.48;99576.14;4319865;80;21037;-88
2022/03/05 08:56:28;;;;;;;17.00;7.65;;;;;;;2.29;84.18;99577.08;4333540;80;21055;-90
2022/03/05 09:02:31;;;;;;;15.10;7.78;;;;;;;2.86;82.91;99580.25;4335229;80;21633;-88
2022/03/05 09:08:35;;;;;;;12.85;6.22;;;;;;;3.48;82.68;99575.02;4341003;80;21056;-92
2022/03/05 09:14:36;;;;;;;12.00;6.05;;;;;;;4.09;80.42;99580.22;4332315;80;21062;-89
2022/03/05 09:20:38;;;;;;;9.55;5.12;;;;;;;4.28;80.68;99585.31;4333641;80;21021;-87
2022/03/05 09:26:47;;;;;;;9.28;5.22;;;;;;;4.19;80.09;99587.23;4334279;80;21040;-87
2022/03/05 09:32:48;;;;;;;9.55;5.35;;;;;;;3.86;78.89;99580.13;4338776;80;21030;-87
2022/03/05 09:38:50;;;;;;;5.47;3.00;;;;;;;3.67;77.12;99586.38;4338513;80;21428;-88
2022/03/05 09:44:53;;;;;;;8.05;4.08;;;;;;;3.13;75.89;99584.91;4341731;79;21627;-90
2022/03/05 09:50:59;;;;;;;4.55;3.22;;;;;;;2.98;74.68;99583.17;4335945;80;21128;-87
2022/03/05 09:57:01;;;;;;;10.10;4.27;;;;;;;2.89;75.25;99587.73;4339116;80;20989;-88
2022/03/05 10:03:06;;;;;;;10.53;5.58;;;;;;;3.00;73.87;99600.70;4342818;80;21685;-88
2022/03/05 10:09:21;;;;;;;9.83;5.10;;;;;;;2.80;74.87;99597.14;4336050;80;21016;-89
2022/03/05 10:15:23;;;;;;;9.58;5.15;;;;;;;2.72;72.89;99603.32;4335733;80;21117;-89
2022/03/05 10:21:30;;;;;;;12.75;6.65;;;;;;;2.58;73.09;99606.65;4335539;80;21024;-87
2022/03/05 10:27:32;;;;;;;12.47;6.35;;;;;;;2.61;72.44;99611.98;4336924;80;21092;-90
2022/03/05 10:33:45;;;;;;;12.43;6.47;;;;;;;2.55;71.51;99613.98;4336628;80;21576;-87
2022/03/05 10:39:49;;;;;;;9.88;5.40;;;;;;;2.46;71.81;99613.71;4337577;80;21429;-89
2022/03/05 10:45:58;;;;;;;9.73;4.80;;;;;;;2.39;71.35;99606.56;4331756;80;21057;-88
2022/03/05 10:52:04;;;;;;;11.22;5.37;;;;;;;2.43;71.15;99608.89;4332699;80;21112;-86
2022/03/05 10:58:16;;;;;;;8.33;4.22;;;;;;;2.47;70.04;99605.30;4309606;80;21064;-86
2022/03/05 11:04:21;;;;;;;8.05;3.50;;;;;;;2.59;68.94;99599.32;4314241;80;21816;-86
2022/03/05 11:10:29;;;;;;;8.25;3.98;;;;;;;2.66;69.52;99596.99;4309765;80;21610;-86
2022/03/05 11:16:33;;;;;;;9.98;3.70;;;;;;;2.73;67.50;99587.88;4314874;80;21893;-90
2022/03/05 11:22:35;;;;;;;5.40;3.70;;;;;;;3.38;67.94;99591.55;4317462;80;21058;-90
2022/03/05 11:28:48;;;;;;;15.28;5.95;;;;;;;3.27;63.79;99593.48;4308390;80;21071;-89
2022/03/05 11:34:52;;;;;;;9.40;4.75;;;;;;;3.03;65.22;99592.50;4317890;80;21096;-95
2022/03/05 11:40:53;;;;;;;8.10;4.90;;;;;;;2.73;64.26;99592.74;4302438;80;21071;-90
2022/03/05 11:47:26;;;;;;;9.98;5.08;;;;;;;2.49;63.48;99600.94;4305690;80;21505;-89
2022/03/05 11:53:28;;;;;;;11.35;5.65;;;;;;;2.39;62.72;99595.76;4313725;80;21099;-88
2022/03/05 11:59:33;;;;;;;7.83;5.08;;;;;;;2.32;63.52;99590.78;4324464;80;21087;-92
2022/03/05 12:05:46;;;;;;;10.80;4.80;;;;;;;2.53;63.27;99582.44;4319555;80;21079;-92
2022/03/05 12:11:55;;;;;;;7.60;4.40;;;;;;;2.86;62.16;99585.12;4319168;80;21635;-89
2022/03/05 12:17:57;;;;;;;18.05;7.95;;;;;;;2.98;61.80;99585.33;4323879;80;22260;-90
2022/03/05 12:24:05;;;;;;;9.65;5.30;;;;;;;2.87;62.37;99580.48;4320472;80;21654;-88
2022/03/05 12:30:12;;;;;;;12.03;5.25;;;;;;;2.73;61.21;99581.13;4320854;80;21064;-88
2022/03/05 12:36:17;;;;;;;8.88;4.67;;;;;;;2.67;61.42;99579.11;4315803;80;21092;-89
2022/03/05 12:42:21;;;;;;;12.45;5.00;;;;;;;2.62;59.51;99579.23;4324387;80;21622;-88
2022/03/05 12:48:23;;;;;;;15.38;5.80;;;;;;;2.60;59.88;99571.20;4320193;80;21888;-89
2022/03/05 12:54:25;;;;;;;11.88;5.00;;;;;;;2.51;59.66;99573.03;4317395;80;21612;-89
2022/03/05 13:00:26;;;;;;;12.20;4.62;;;;;;;2.53;59.82;99576.23;4317126;80;21105;-89
2022/03/05 13:06:28;;;;;;;23.65;7.05;;;;;;;2.65;60.25;99581.86;4320710;80;21083;-90
2022/03/05 13:12:39;;;;;;;8.30;3.67;;;;;;;2.73;59.10;99582.47;4315385;80;21072;-91
2022/03/05 13:18:40;;;;;;;6.85;4.25;;;;;;;2.76;59.54;99580.50;4311015;80;21095;-90
2022/03/05 13:24:47;;;;;;;9.25;4.53;;;;;;;2.74;59.55;99575.98;4317385;80;21071;-91
2022/03/05 13:30:54;;;;;;;7.53;4.70;;;;;;;2.55;56.69;99579.43;4317280;80;21032;-89
2022/03/05 13:36:58;;;;;;;13.78;6.33;;;;;;;2.38;58.71;99572.56;4323263;80;21096;-90
2022/03/05 13:43:00;;;;;;;9.30;5.80;;;;;;;2.46;58.68;99577.23;4320527;80;21008;-91
2022/03/05 13:49:01;;;;;;;9.05;5.12;;;;;;;2.54;58.78;99574.57;4324065;80;22366;-93
2022/03/05 13:55:13;;;;;;;6.90;4.90;;;;;;;2.48;58.17;99567.70;4322317;80;21053;-92
2022/03/05 14:01:37;;;;;;;7.58;4.45;;;;;;;2.43;58.50;99579.16;4324450;80;21035;-90
2022/03/05 14:07:47;;;;;;;11.12;6.28;;;;;;;2.36;58.44;99580.16;4317646;80;21064;-90
2022/03/05 14:13:51;;;;;;;9.58;5.83;;;;;;;2.34;58.60;99579.66;4320238;80;21040;-88
2022/03/05 14:20:25;;;;;;;6.53;4.15;;;;;;;2.52;58.95;99579.48;4324147;80;21596;-93
2022/03/05 14:26:32;;;;;;;11.93;5.95;;;;;;;2.74;56.83;99571.92;4323392;80;22383;-89
2022/03/05 14:32:35;;;;;;;9.50;6.87;;;;;;;2.56;57.75;99574.26;4320234;80;21079;-89
2022/03/05 14:38:37;;;;;;;10.82;6.33;;;;;;;2.44;58.10;99585.64;4325605;80;21744;-89
2022/03/05 14:44:39;;;;;;;8.28;5.50;;;;;;;2.39;58.15;99584.95;4313860;80;22228;-88
2022/03/05 14:50:43;;;;;;;12.07;7.20;;;;;;;2.29;57.12;99601.39;4318361;80;21051;-91
2022/03/05 14:56:45;;;;;;;10.58;6.17;;;;;;;2.14;57.79;99613.91;4320055;80;22252;-88
2022/03/05 15:02:47;;;;;;;13.50;7.33;;;;;;;1.98;57.82;99609.94;4323664;80;21025;-90
2022/03/05 15:08:48;;;;;;;14.03;7.15;;;;;;;1.91;57.68;99610.92;4320815;80;21055;-89
2022/03/05 15:14:55;;;;;;;16.67;7.90;;;;;;;1.78;57.67;99611.73;4293046;80;22111;-90
2022/03/05 15:20:58;;;;;;;21.68;11.15;;;;;;;1.69;58.07;99605.45;4319523;80;21092;-90
2022/03/05 15:27:00;;;;;;;15.80;8.55;;;;;;;1.57;58.20;99605.41;4330154;80;21533;-90
2022/03/05 15:33:04;;;;;;;20.35;9.78;;;;;;;1.51;58.46;99607.97;4320598;80;21068;-89
2022/03/05 15:39:06;;;;;;;49.10;23.67;;;;;;;1.44;58.48;99606.21;4318656;80;21051;-88
2022/03/05 15:45:08;;;;;;;24.30;12.10;;;;;;;1.36;59.08;99593.99;4314406;80;21048;-90
2022/03/05 15:51:13;;;;;;;31.20;13.50;;;;;;;1.28;59.19;99590.10;4323658;80;21078;-91
2022/03/05 15:57:17;;;;;;;28.98;14.03;;;;;;;1.25;59.46;99587.20;4243380;81;21047;-89
2022/03/05 16:03:20;;;;;;;31.50;17.52;;;;;;;1.26;59.68;99585.55;4232580;82;21086;-88
2022/03/05 16:09:21;;;;;;;19.17;11.28;;;;;;;1.22;59.91;99591.84;4227898;82;21390;-88
2022/03/05 16:15:24;;;;;;;19.15;8.85;;;;;;;1.22;60.07;99587.23;4240183;82;21130;-90
2022/03/05 16:21:29;;;;;;;20.48;9.30;;;;;;;1.21;60.04;99584.29;4234752;82;21035;-89
2022/03/05 16:27:31;;;;;;;23.55;11.30;;;;;;;1.19;60.13;99583.00;4242656;82;20990;-89
2022/03/05 16:33:33;;;;;;;23.80;9.95;;;;;;;1.12;60.47;99590.67;4230463;82;21118;-89
2022/03/05 16:39:34;;;;;;;23.50;10.35;;;;;;;1.04;60.48;99588.13;4233923;82;21077;-91
2022/03/05 16:45:36;;;;;;;27.62;12.03;;;;;;;0.97;60.61;99609.27;4234023;82;21049;-90
2022/03/05 16:51:42;;;;;;;24.82;13.13;;;;;;;0.89;60.89;99605.13;4241625;82;21082;-92
2022/03/05 16:57:44;;;;;;;23.20;11.63;;;;;;;0.80;60.88;99607.69;4203192;82;21075;-90
2022/03/05 17:03:45;;;;;;;22.70;11.90;;;;;;;0.74;61.13;99617.50;4205170;82;21046;-90
2022/03/05 17:09:50;;;;;;;27.32;14.25;;;;;;;0.69;61.42;99623.78;4212316;82;21757;-89
2022/03/05 17:15:51;;;;;;;53.35;22.98;;;;;;;0.66;61.89;99621.68;4092610;81;10000528;-89
2022/03/05 17:21:53;;;;;;;42.60;21.85;;;;;;;0.64;61.98;99620.39;4207077;82;21137;-90
2022/03/05 17:27:55;;;;;;;60.23;27.00;;;;;;;0.61;61.78;99622.33;4202682;82;21110;-89
2022/03/05 17:33:57;;;;;;;63.17;25.43;;;;;;;0.57;62.38;99614.56;4205399;82;21038;-90
2022/03/05 17:40:00;;;;;;;45.63;22.05;;;;;;;0.56;62.94;99613.78;4208663;82;21095;-92
2022/03/05 17:46:10;;;;;;;37.88;18.50;;;;;;;0.56;62.85;99613.78;4196860;82;21038;-90
2022/03/05 17:52:14;;;;;;;72.90;31.37;;;;;;;0.54;62.88;99618.66;4197641;82;21073;-94
2022/03/05 17:58:15;;;;;;;56.00;27.17;;;;;;;0.51;62.98;99619.25;4299336;80;21090;-93
2022/03/05 18:04:20;;;;;;;43.63;20.05;;;;;;;0.48;63.14;99618.48;4316270;80;21017;-90
2022/03/05 18:10:21;;;;;;;64.72;25.85;;;;;;;0.46;63.33;99622.02;4264653;82;21091;-90
2022/03/05 18:16:23;;;;;;;40.45;18.98;;;;;;;0.43;63.42;99629.34;4154496;82;9999834;-89
2022/03/05 18:22:24;;;;;;;40.33;18.80;;;;;;;0.43;63.77;99629.88;4284621;81;21356;-92
2022/03/05 18:28:26;;;;;;;33.10;18.02;;;;;;;0.42;63.93;99632.33;4258218;81;21010;-90
2022/03/05 18:34:28;;;;;;;53.83;23.02;;;;;;;0.40;64.13;99632.63;4227918;82;21201;-91
2022/03/05 18:40:32;;;;;;;69.12;30.55;;;;;;;0.34;64.17;99635.68;4188723;83;21026;-90
2022/03/05 18:46:33;;;;;;;29.02;15.08;;;;;;;0.26;64.36;99641.19;4193633;83;21599;-89
2022/03/05 18:52:35;;;;;;;25.20;13.48;;;;;;;0.24;64.65;99639.86;4194491;83;22261;-89
2022/03/05 18:58:38;;;;;;;33.40;17.17;;;;;;;0.22;64.91;99642.84;4124222;83;22111;-90
2022/03/05 19:04:39;;;;;;;41.83;20.52;;;;;;;0.20;65.01;99639.66;4228206;82;21086;-91
2022/03/05 19:10:43;;;;;;;42.60;21.80;;;;;;;0.15;65.19;99641.08;4230890;82;21327;-89
2022/03/05 19:16:44;;;;;;;52.05;23.27;;;;;;;0.14;65.47;99647.56;4227481;82;21043;-89
2022/03/05 19:22:46;;;;;;;50.63;23.73;;;;;;;0.13;65.38;99645.94;4234477;82;21036;-88
2022/03/05 19:28:48;;;;;;;49.50;24.32;;;;;;;0.12;66.04;99653.77;4238096;82;21051;-88
2022/03/05 19:34:51;;;;;;;46.53;25.08;;;;;;;0.10;65.88;99660.52;4225814;82;21083;-89
2022/03/05 19:40:52;;;;;;;51.53;25.87;;;;;;;0.07;66.23;99667.83;4226645;82;21058;-90
2022/03/05 19:46:55;;;;;;;56.20;26.50;;;;;;;0.05;66.57;99668.69;4226283;82;21031;-89
2022/03/05 19:52:57;;;;;;;59.45;27.22;;;;;;;0.03;66.93;99677.05;4236030;82;21026;-89
2022/03/05 19:59:02;;;;;;;61.50;30.80;;;;;;;-0.07;67.15;99669.10;4309482;80;21084;-88
2022/03/05 20:05:04;;;;;;;63.00;29.30;;;;;;;-0.04;67.19;99685.48;4315360;80;21012;-89
2022/03/05 20:11:08;;;;;;;59.73;29.75;;;;;;;-0.08;66.99;99685.78;4319887;80;21737;-90
2022/03/05 20:17:16;;;;;;;65.15;29.52;;;;;;;-0.12;67.19;99679.92;4325814;80;21056;-89
2022/03/05 20:23:20;;;;;;;66.82;31.48;;;;;;;-0.17;67.84;99679.98;4322209;80;21538;-89
2022/03/05 20:29:22;;;;;;;66.33;31.82;;;;;;;-0.18;68.33;99685.12;4326616;80;21009;-89
2022/03/05 20:35:29;;;;;;;63.68;30.02;;;;;;;-0.23;68.86;99688.67;4320016;80;21083;-89
2022/03/05 20:41:33;;;;;;;63.63;32.70;;;;;;;-0.23;68.86;99688.67;4238274;82;21124;-89
2022/03/05 20:47:43;;;;;;;68.12;35.03;;;;;;;-0.29;69.71;99684.45;4233011;82;21657;-88
2022/03/05 20:53:51;;;;;;;72.60;36.48;;;;;;;-0.29;69.71;99684.45;4198712;83;21697;-89
2022/03/05 20:59:55;;;;;;;70.72;34.15;;;;;;;-0.30;69.89;99683.39;4206023;82;22204;-90
2022/03/05 21:06:01;;;;;;;68.45;34.60;;;;;;;-0.35;70.31;99681.56;4216112;82;21031;-88
2022/03/05 21:12:05;;;;;;;71.35;34.35;;;;;;;-0.35;70.31;99681.56;4206054;82;21070;-90
2022/03/05 21:18:16;;;;;;;77.13;37.43;;;;;;;-0.35;70.70;99682.91;4213657;82;21996;-89
2022/03/05 21:24:20;;;;;;;70.95;34.43;;;;;;;-0.36;70.94;99683.20;4207938;82;21079;-88
2022/03/05 21:30:24;;;;;;;79.10;37.80;;;;;;;-0.36;71.11;99689.36;4212604;82;21149;-88
2022/03/05 21:36:28;;;;;;;84.00;39.92;;;;;;;-0.37;71.51;99686.42;4205702;82;21141;-89
2022/03/05 21:42:30;;;;;;;78.92;38.35;;;;;;;-0.37;71.74;99678.89;4208607;82;21100;-89
2022/03/05 21:48:31;;;;;;;83.43;40.07;;;;;;;-0.36;71.58;99679.16;4209229;82;21091;-88
2022/03/05 21:54:35;;;;;;;86.10;43.00;;;;;;;-0.38;71.85;99679.98;4209187;82;21941;-90
2022/03/05 22:00:39;;;;;;;97.12;43.45;;;;;;;-0.38;72.43;99678.64;4233656;82;21027;-90
2022/03/05 22:06:45;;;;;;;103.00;47.55;;;;;;;-0.39;72.42;99680.52;4231798;82;21540;-89
2022/03/05 22:12:50;;;;;;;102.22;49.33;;;;;;;-0.38;72.86;99674.61;4229789;82;21107;-88
2022/03/05 22:18:54;;;;;;;93.17;45.88;;;;;;;-0.39;73.05;99672.98;4232293;82;21074;-90
2022/03/05 22:25:01;;;;;;;104.53;46.23;;;;;;;-0.40;73.27;99674.08;4231263;82;21052;-88
2022/03/05 22:31:02;;;;;;;99.00;47.10;;;;;;;-0.42;73.21;99677.59;4234594;82;21086;-89
2022/03/05 22:37:10;;;;;;;128.02;58.28;;;;;;;-0.45;73.55;99665.53;4231624;82;21012;-89
2022/03/05 22:43:18;;;;;;;126.50;60.75;;;;;;;-0.44;73.69;99668.47;4235242;82;21055;-90
2022/03/05 22:49:21;;;;;;;113.08;56.13;;;;;;;-0.44;73.86;99667.69;4232347;82;21023;-88
2022/03/05 22:55:22;;;;;;;106.22;50.88;;;;;;;-0.47;73.94;99663.66;4230860;82;22154;-88
2022/03/05 23:01:27;;;;;;;89.55;43.90;;;;;;;-0.51;73.88;99654.58;4208914;82;21689;-88
2022/03/05 23:13:57;;;;;;;75.47;36.28;;;;;;;-0.55;74.16;99652.75;4210329;82;21035;-88
2022/03/05 23:20:05;;;;;;;74.45;35.05;;;;;;;-0.58;74.23;99647.95;4209727;82;21066;-88
2022/03/05 23:26:12;;;;;;;74.92;34.10;;;;;;;-0.60;74.13;99647.42;4210960;82;22401;-89
2022/03/05 23:32:13;;;;;;;68.12;32.08;;;;;;;-0.63;74.28;99635.36;4212545;82;21406;-88
2022/03/05 23:38:16;;;;;;;80.93;38.07;;;;;;;-0.64;74.34;99630.28;4208281;82;21149;-89
2022/03/05 23:44:19;;;;;;;69.87;35.38;;;;;;;-0.63;74.45;99627.30;4202772;82;21059;-91
2022/03/05 23:50:22;;;;;;;82.08;36.40;;;;;;;-0.65;74.27;99628.66;4213742;82;21094;-90
2022/03/05 23:56:24;;;;;;;81.35;37.83;;;;;;;-0.66;74.64;99621.13;4311081;80;21063;-89
